createdAt,value
2022-12-15T00:02:22.811Z,4.49
2022-12-15T00:05:12.810Z,4.49
2022-12-15T00:08:02.475Z,4.48
2022-12-15T00:10:52.048Z,4.51
2022-12-15T00:13:41.555Z,4.50
2022-12-15T00:16:31.251Z,4.53
2022-12-15T00:19:20.850Z,4.53
2022-12-15T00:22:10.498Z,4.52
2022-12-15T00:25:00.156Z,4.54
2022-12-15T00:27:49.973Z,4.56
2022-12-15T00:30:39.604Z,4.58
2022-12-15T00:33:30.849Z,4.57
2022-12-15T00:36:21.040Z,4.58
2022-12-15T00:38:53.190Z,4.56
2022-12-15T00:41:25.328Z,4.56
2022-12-15T00:43:57.499Z,4.58
2022-12-15T00:46:47.100Z,4.59
2022-12-15T00:49:36.881Z,4.61
2022-12-15T00:52:27.146Z,4.64
2022-12-15T00:55:17.741Z,4.66
2022-12-15T00:58:07.583Z,4.68
2022-12-15T01:00:57.238Z,4.69
2022-12-15T01:03:46.742Z,4.70
2022-12-15T01:06:39.469Z,4.70
2022-12-15T01:09:31.833Z,4.70
2022-12-15T01:12:21.515Z,4.71
2022-12-15T01:15:10.991Z,4.71
2022-12-15T01:18:00.710Z,4.69
2022-12-15T01:20:34.745Z,4.74
2022-12-15T01:23:07.169Z,4.74
2022-12-15T01:25:41.092Z,4.73
2022-12-15T01:28:13.222Z,4.72
2022-12-15T01:30:45.447Z,4.71
2022-12-15T01:33:18.707Z,4.70
2022-12-15T01:36:00.358Z,4.70
2022-12-15T01:38:32.865Z,4.68
2022-12-15T01:41:06.877Z,4.67
2022-12-15T01:43:41.007Z,4.67
2022-12-15T01:46:15.240Z,4.67
2022-12-15T01:48:50.646Z,4.66
2022-12-15T01:51:33.477Z,4.65
2022-12-15T01:54:09.502Z,4.63
2022-12-15T01:56:46.898Z,4.62
2022-12-15T01:59:25.111Z,4.60
2022-12-15T02:01:57.512Z,4.59
2022-12-15T02:04:30.130Z,4.56
2022-12-15T02:07:02.262Z,4.56
2022-12-15T02:09:34.758Z,4.55
2022-12-15T02:12:16.981Z,4.55
2022-12-15T02:15:00.243Z,4.56
2022-12-15T02:17:40.524Z,4.58
2022-12-15T02:20:36.304Z,4.58
2022-12-15T02:23:32.531Z,4.62
2022-12-15T02:26:28.799Z,4.63
2022-12-15T02:29:13.333Z,4.64
2022-12-15T02:31:51.721Z,4.64
2022-12-15T02:34:34.016Z,4.64
2022-12-15T02:37:11.967Z,4.63
2022-12-15T02:39:44.429Z,4.63
2022-12-15T02:42:16.834Z,4.64
2022-12-15T02:44:53.488Z,4.64
2022-12-15T02:47:34.106Z,4.62
2022-12-15T02:50:35.121Z,4.62
2022-12-15T02:53:20.769Z,4.61
2022-12-15T02:56:02.987Z,4.61
2022-12-15T02:58:42.800Z,4.61
2022-12-15T03:01:20.036Z,4.59
2022-12-15T03:03:53.154Z,4.61
2022-12-15T03:06:28.005Z,4.60
2022-12-15T03:09:00.177Z,4.59
2022-12-15T03:11:32.583Z,4.59
2022-12-15T03:14:05.032Z,4.59
2022-12-15T03:16:37.252Z,4.60
2022-12-15T03:19:09.471Z,4.62
2022-12-15T03:21:41.624Z,4.62
2022-12-15T03:24:14.040Z,4.64
2022-12-15T03:26:50.026Z,4.65
2022-12-15T03:29:22.484Z,4.66
2022-12-15T03:31:54.780Z,4.67
2022-12-15T03:34:27.214Z,4.68
2022-12-15T03:36:59.787Z,4.69
2022-12-15T03:39:32.052Z,4.70
2022-12-15T03:42:04.328Z,4.70
2022-12-15T03:44:36.517Z,4.70
2022-12-15T03:47:08.757Z,4.70
2022-12-15T03:49:40.973Z,4.70
2022-12-15T03:52:13.196Z,4.71
2022-12-15T03:54:45.341Z,4.70
2022-12-15T03:57:17.467Z,4.70
2022-12-15T03:59:49.694Z,4.70
2022-12-15T04:02:22.573Z,4.70
2022-12-15T04:04:55.085Z,4.72
2022-12-15T04:07:27.248Z,4.74
2022-12-15T04:09:59.382Z,4.75
2022-12-15T04:12:31.603Z,4.76
2022-12-15T04:15:03.794Z,4.77
2022-12-15T04:17:36.189Z,4.79
2022-12-15T04:20:10.831Z,4.80
2022-12-15T04:22:45.180Z,4.82
2022-12-15T04:25:37.374Z,4.83
2022-12-15T04:28:27.591Z,4.86
2022-12-15T04:31:21.315Z,4.89
2022-12-15T04:34:14.252Z,4.91
2022-12-15T04:37:07.977Z,4.92
2022-12-15T04:39:59.791Z,4.94
2022-12-15T04:42:51.706Z,4.95
2022-12-15T04:45:43.807Z,4.95
2022-12-15T04:48:34.125Z,4.96
2022-12-15T04:51:24.179Z,4.96
2022-12-15T04:54:13.797Z,4.96
2022-12-15T04:57:04.024Z,4.96
2022-12-15T04:59:53.614Z,4.97
2022-12-15T05:02:43.157Z,4.96
2022-12-15T05:05:33.195Z,4.96
2022-12-15T05:08:22.707Z,4.96
2022-12-15T05:11:12.609Z,4.95
2022-12-15T05:14:02.252Z,4.95
2022-12-15T05:16:51.742Z,4.93
2022-12-15T05:19:41.564Z,4.91
2022-12-15T05:22:31.275Z,4.92
2022-12-15T05:25:20.838Z,4.93
2022-12-15T05:28:10.335Z,4.94
2022-12-15T05:31:00.226Z,4.94
2022-12-15T05:33:32.690Z,4.95
2022-12-15T05:36:06.054Z,4.95
2022-12-15T05:38:38.288Z,4.96
2022-12-15T05:41:10.435Z,4.97
2022-12-15T05:43:42.613Z,4.96
2022-12-15T05:46:15.866Z,4.96
2022-12-15T05:48:48.356Z,4.96
2022-12-15T05:51:20.514Z,4.95
2022-12-15T05:53:52.678Z,4.90
2022-12-15T05:56:26.178Z,4.87
2022-12-15T05:58:58.836Z,4.82
2022-12-15T06:01:32.142Z,4.79
2022-12-15T06:04:04.718Z,4.77
2022-12-15T06:06:37.071Z,4.75
2022-12-15T06:09:09.464Z,4.72
2022-12-15T06:11:41.884Z,4.72
2022-12-15T06:14:14.074Z,4.72
2022-12-15T06:16:49.968Z,4.73
2022-12-15T06:19:24.155Z,4.73
2022-12-15T06:21:56.304Z,4.74
2022-12-15T06:24:28.721Z,4.77
2022-12-15T06:27:00.866Z,4.79
2022-12-15T06:29:33.354Z,4.81
2022-12-15T06:32:05.998Z,4.82
2022-12-15T06:34:38.307Z,4.80
2022-12-15T06:37:10.450Z,4.86
2022-12-15T06:39:42.817Z,4.84
2022-12-15T06:42:15.411Z,4.80
2022-12-15T06:44:47.661Z,4.74
2022-12-15T06:47:22.342Z,4.70
2022-12-15T06:49:55.502Z,4.67
2022-12-15T06:52:27.663Z,4.66
2022-12-15T06:54:59.843Z,4.64
2022-12-15T06:57:32.038Z,4.59
2022-12-15T07:00:04.972Z,4.54
2022-12-15T07:02:37.363Z,4.52
2022-12-15T07:05:10.531Z,4.51
2022-12-15T07:07:42.709Z,4.49
2022-12-15T07:10:15.151Z,4.52
2022-12-15T07:12:47.283Z,4.54
2022-12-15T07:15:19.856Z,4.54
2022-12-15T07:17:52.469Z,4.54
2022-12-15T07:20:28.768Z,4.56
2022-12-15T07:23:03.911Z,4.58
2022-12-15T07:25:36.791Z,4.61
2022-12-15T07:28:09.803Z,4.65
2022-12-15T07:30:42.035Z,4.66
2022-12-15T07:33:15.100Z,4.66
2022-12-15T07:35:56.150Z,4.63
2022-12-15T07:38:29.679Z,4.63
2022-12-15T07:41:05.651Z,4.69
2022-12-15T07:43:38.600Z,4.75
2022-12-15T07:46:11.302Z,4.80
2022-12-15T07:48:43.512Z,4.88
2022-12-15T07:51:19.711Z,4.95
2022-12-15T07:53:52.920Z,5.01
2022-12-15T07:56:25.139Z,5.02
2022-12-15T07:58:57.271Z,5.01
2022-12-15T08:01:29.562Z,5.02
2022-12-15T08:04:02.255Z,5.06
2022-12-15T08:06:34.537Z,5.09
2022-12-15T08:09:06.724Z,5.11
2022-12-15T08:11:39.019Z,5.13
2022-12-15T08:14:16.889Z,5.17
2022-12-15T08:16:50.144Z,5.19
2022-12-15T08:19:22.586Z,5.20
2022-12-15T08:21:54.796Z,5.24
2022-12-15T08:24:27.259Z,5.29
2022-12-15T08:27:00.016Z,5.36
2022-12-15T08:29:50.722Z,5.42
2022-12-15T08:32:24.651Z,5.48
2022-12-15T08:34:56.952Z,5.53
2022-12-15T08:37:29.158Z,5.59
2022-12-15T08:40:01.283Z,5.64
2022-12-15T08:42:37.681Z,5.65
2022-12-15T08:45:12.549Z,5.66
2022-12-15T08:47:44.704Z,5.69
2022-12-15T08:50:17.060Z,5.71
2022-12-15T08:53:13.842Z,5.72
2022-12-15T08:55:41.827Z,5.74
2022-12-15T08:58:14.009Z,5.74
2022-12-15T09:00:46.679Z,5.73
2022-12-15T09:03:18.833Z,5.73
2022-12-15T09:05:51.023Z,5.75
2022-12-15T09:08:23.156Z,5.78
2022-12-15T09:10:55.307Z,5.83
2022-12-15T09:13:28.003Z,5.85
2022-12-15T09:16:10.758Z,5.88
2022-12-15T09:18:45.522Z,5.91
2022-12-15T09:21:19.170Z,5.92
2022-12-15T09:23:52.861Z,5.92
2022-12-15T09:26:26.170Z,5.95
2022-12-15T09:28:59.008Z,5.98
2022-12-15T09:31:33.034Z,5.99
2022-12-15T09:34:05.426Z,5.97
2022-12-15T09:36:37.586Z,5.90
2022-12-15T09:39:12.024Z,5.87
2022-12-15T09:41:59.756Z,5.90
2022-12-15T09:44:33.916Z,5.90
2022-12-15T09:47:16.180Z,5.90
2022-12-15T09:49:55.573Z,5.87
2022-12-15T09:52:30.247Z,5.88
2022-12-15T09:55:04.250Z,5.92
2022-12-15T09:57:42.132Z,5.93
2022-12-15T10:00:22.330Z,5.89
2022-12-15T10:03:36.508Z,5.89
2022-12-15T10:06:17.772Z,5.95
2022-12-15T10:08:56.075Z,5.99
2022-12-15T10:11:50.182Z,5.99
2022-12-15T10:14:33.526Z,5.99
2022-12-15T10:17:17.229Z,6.02
2022-12-15T10:19:55.311Z,6.06
2022-12-15T10:22:32.062Z,6.10
2022-12-15T10:25:14.991Z,6.13
2022-12-15T10:28:08.216Z,6.18
2022-12-15T10:30:51.408Z,6.19
2022-12-15T10:33:28.422Z,6.16
2022-12-15T10:36:01.016Z,6.16
2022-12-15T10:38:38.565Z,6.15
2022-12-15T10:41:12.931Z,6.10
2022-12-15T10:43:47.602Z,6.10
2022-12-15T10:46:24.307Z,6.11
2022-12-15T10:49:00.432Z,6.13
2022-12-15T10:51:34.429Z,6.15
2022-12-15T10:54:13.313Z,6.15
2022-12-15T10:56:52.765Z,6.16
2022-12-15T10:59:31.203Z,6.16
2022-12-15T11:02:27.308Z,6.17
2022-12-15T11:05:01.280Z,6.18
2022-12-15T11:07:39.905Z,6.17
2022-12-15T11:10:50.044Z,6.15
2022-12-15T11:13:27.310Z,6.16
2022-12-15T11:16:16.280Z,6.17
2022-12-15T11:18:49.747Z,6.21
2022-12-15T11:21:25.632Z,6.24
2022-12-15T11:24:05.929Z,6.27
2022-12-15T11:26:50.329Z,6.24
2022-12-15T11:29:34.584Z,6.22
2022-12-15T11:32:07.701Z,6.18
2022-12-15T11:34:43.386Z,6.19
2022-12-15T11:37:36.421Z,6.21
2022-12-15T11:40:30.982Z,6.25
2022-12-15T11:43:28.411Z,6.26
2022-12-15T11:46:17.515Z,6.19
2022-12-15T11:49:16.243Z,6.15
2022-12-15T11:51:54.992Z,6.15
2022-12-15T11:54:36.051Z,6.17
2022-12-15T11:57:27.705Z,6.20
2022-12-15T12:00:07.124Z,6.19
2022-12-15T12:03:05.538Z,6.17
2022-12-15T12:05:51.915Z,6.15
2022-12-15T12:08:39.513Z,6.10
2022-12-15T12:11:16.882Z,6.07
2022-12-15T12:14:11.941Z,6.07
2022-12-15T12:16:51.360Z,6.09
2022-12-15T12:19:32.237Z,6.10
2022-12-15T12:22:08.686Z,6.11
2022-12-15T12:24:48.972Z,6.09
2022-12-15T12:27:31.906Z,6.04
2022-12-15T12:30:10.067Z,6.09
2022-12-15T12:32:50.497Z,6.10
2022-12-15T12:35:32.885Z,6.09
2022-12-15T12:38:08.139Z,6.05
2022-12-15T12:40:54.587Z,6.03
2022-12-15T12:43:28.932Z,5.96
2022-12-15T12:46:06.875Z,5.96
2022-12-15T12:48:44.922Z,5.95
2022-12-15T12:51:28.404Z,5.92
2022-12-15T12:54:02.185Z,5.86
2022-12-15T12:56:45.590Z,5.82
2022-12-15T12:59:44.979Z,5.80
2022-12-15T13:02:55.160Z,5.79
2022-12-15T13:05:33.771Z,5.78
2022-12-15T13:12:14.959Z,5.80
2022-12-15T13:14:57.321Z,5.76
2022-12-15T13:17:39.477Z,5.78
2022-12-15T13:20:29.499Z,5.77
2022-12-15T13:23:31.675Z,5.76
2022-12-15T13:26:16.281Z,5.74
2022-12-15T13:28:53.165Z,5.69
2022-12-15T13:31:34.458Z,5.64
2022-12-15T13:34:23.202Z,5.61
2022-12-15T13:37:03.167Z,5.61
2022-12-15T13:39:49.968Z,5.54
2022-12-15T13:42:48.233Z,5.60
2022-12-15T13:45:44.171Z,5.57
2022-12-15T13:48:25.773Z,5.55
2022-12-15T13:51:06.043Z,5.55
2022-12-15T13:53:44.690Z,5.53
2022-12-15T13:56:42.942Z,5.52
2022-12-15T13:59:26.714Z,5.52
2022-12-15T14:01:58.916Z,5.52
2022-12-15T14:04:31.352Z,5.53
2022-12-15T14:07:04.498Z,5.54
2022-12-15T14:09:40.616Z,5.54
2022-12-15T14:12:16.685Z,5.52
2022-12-15T14:14:52.541Z,5.53
2022-12-15T14:17:25.034Z,5.55
2022-12-15T14:19:57.404Z,5.48
2022-12-15T14:22:31.113Z,5.50
2022-12-15T14:25:05.428Z,5.48
2022-12-15T14:27:37.575Z,5.46
2022-12-15T14:30:29.378Z,5.45
2022-12-15T14:33:07.111Z,5.42
2022-12-15T14:35:42.828Z,5.39
2022-12-15T14:38:19.359Z,5.38
2022-12-15T14:40:53.293Z,5.36
2022-12-15T14:43:28.844Z,5.32
2022-12-15T14:46:07.865Z,5.26
2022-12-15T14:48:45.368Z,5.22
2022-12-15T14:51:17.726Z,5.14
2022-12-15T14:53:53.458Z,5.14
2022-12-15T14:56:30.515Z,5.10
2022-12-15T14:59:05.973Z,5.05
2022-12-15T15:01:42.195Z,5.05
2022-12-15T15:03:11.154Z,5.78
2022-12-15T15:04:29.307Z,5.01
2022-12-15T15:07:04.326Z,4.97
2022-12-15T15:09:42.202Z,4.96
2022-12-15T15:12:18.494Z,4.97
2022-12-15T15:14:54.802Z,4.97
2022-12-15T15:17:32.493Z,4.94
2022-12-15T15:20:08.416Z,4.87
2022-12-15T15:22:43.611Z,4.81
2022-12-15T15:25:41.132Z,4.78
2022-12-15T15:28:24.994Z,4.73
2022-12-15T15:31:00.612Z,4.70
2022-12-15T15:33:33.236Z,4.70
2022-12-15T15:36:11.411Z,4.66
2022-12-15T15:38:46.765Z,4.61
2022-12-15T15:41:21.140Z,4.59
2022-12-15T15:43:53.411Z,4.57
2022-12-15T15:46:29.574Z,4.56
2022-12-15T15:49:04.883Z,4.54
2022-12-15T15:51:37.872Z,4.54
2022-12-15T15:54:14.326Z,4.56
2022-12-15T15:56:46.608Z,4.58
2022-12-15T15:59:21.163Z,4.58
2022-12-15T16:01:57.706Z,4.57
2022-12-15T16:04:30.008Z,4.53
2022-12-15T16:07:02.182Z,4.53
2022-12-15T16:09:36.011Z,4.54
2022-12-15T16:12:11.606Z,4.54
2022-12-15T16:14:43.790Z,4.52
2022-12-15T16:17:17.346Z,4.50
2022-12-15T16:19:49.590Z,4.50
2022-12-15T16:22:23.623Z,4.49
2022-12-15T16:24:56.578Z,4.50
2022-12-15T16:27:28.811Z,4.50
2022-12-15T16:30:01.052Z,4.49
2022-12-15T16:32:33.256Z,4.51
2022-12-15T16:35:07.140Z,4.53
2022-12-15T16:37:42.114Z,4.53
2022-12-15T16:40:20.535Z,4.52
2022-12-15T16:42:58.289Z,4.51
2022-12-15T16:45:32.239Z,4.49
2022-12-15T16:48:04.612Z,4.36
2022-12-15T16:50:40.319Z,4.28
2022-12-15T16:53:18.324Z,4.26
2022-12-15T16:55:53.776Z,4.24
2022-12-15T16:58:27.353Z,4.24
2022-12-15T17:00:59.578Z,4.22
2022-12-15T17:03:31.990Z,4.24
2022-12-15T17:06:08.991Z,4.27
2022-12-15T17:08:44.907Z,4.30
2022-12-15T17:11:20.507Z,4.32
2022-12-15T17:13:55.035Z,4.30
2022-12-15T17:16:29.683Z,4.27
2022-12-15T17:19:01.931Z,4.28
2022-12-15T17:21:36.953Z,4.29
2022-12-15T17:24:15.041Z,4.32
2022-12-15T17:26:47.667Z,4.31
2022-12-15T17:29:23.087Z,4.25
2022-12-15T17:31:55.636Z,4.21
2022-12-15T17:34:31.331Z,4.20
2022-12-15T17:37:06.171Z,4.21
2022-12-15T17:39:38.768Z,4.22
2022-12-15T17:42:18.223Z,4.21
2022-12-15T17:44:51.635Z,4.20
2022-12-15T17:47:25.519Z,4.20
2022-12-15T17:49:57.767Z,4.18
2022-12-15T17:52:34.560Z,4.13
2022-12-15T17:55:19.617Z,4.12
2022-12-15T17:57:53.725Z,4.18
2022-12-15T18:00:29.194Z,4.19
2022-12-15T18:03:02.695Z,4.21
2022-12-15T18:05:35.383Z,4.22
2022-12-15T18:08:15.326Z,4.23
2022-12-15T18:10:50.537Z,4.23
2022-12-15T18:13:26.057Z,4.27
2022-12-15T18:15:59.295Z,4.29
2022-12-15T18:18:31.625Z,4.23
2022-12-15T18:21:13.099Z,4.27
2022-12-15T18:23:47.659Z,4.28
2022-12-15T18:26:19.831Z,4.32
2022-12-15T18:28:51.991Z,4.36
2022-12-15T18:31:27.068Z,4.37
2022-12-15T18:34:04.295Z,4.37
2022-12-15T18:36:37.320Z,4.33
2022-12-15T18:39:19.696Z,4.26
2022-12-15T18:41:54.769Z,4.21
2022-12-15T18:44:28.984Z,4.22
2022-12-15T18:47:01.226Z,4.20
2022-12-15T18:49:33.391Z,4.15
2022-12-15T18:52:05.669Z,4.15
2022-12-15T18:54:38.763Z,4.12
2022-12-15T18:57:31.261Z,4.11
2022-12-15T19:00:09.242Z,4.07
2022-12-15T19:02:41.969Z,4.08
2022-12-15T19:05:27.863Z,4.05
2022-12-15T19:08:04.565Z,4.06
2022-12-15T19:10:38.725Z,4.05
2022-12-15T19:13:16.730Z,4.05
2022-12-15T19:15:49.199Z,4.05
2022-12-15T19:18:40.657Z,4.05
2022-12-15T19:21:36.751Z,4.05
2022-12-15T19:24:11.538Z,4.01
2022-12-15T19:26:44.123Z,3.99
2022-12-15T19:29:21.282Z,3.97
2022-12-15T19:31:54.891Z,3.95
2022-12-15T19:34:27.226Z,3.95
2022-12-15T19:36:59.889Z,3.93
2022-12-15T19:39:35.267Z,3.92
2022-12-15T19:42:15.270Z,3.87
2022-12-15T19:44:47.414Z,3.87
2022-12-15T19:47:19.870Z,3.84
2022-12-15T19:49:52.958Z,3.92
2022-12-15T19:52:28.370Z,3.98
2022-12-15T19:55:00.782Z,3.99
2022-12-15T19:57:33.664Z,3.92
2022-12-15T20:00:12.039Z,3.85
2022-12-15T20:02:44.737Z,3.80
2022-12-15T20:05:17.098Z,3.80
2022-12-15T20:07:50.071Z,3.83
2022-12-15T20:10:31.321Z,3.84
2022-12-15T20:13:04.451Z,3.84
2022-12-15T20:15:36.594Z,3.86
2022-12-15T20:18:09.436Z,3.87
2022-12-15T20:20:43.550Z,3.89
2022-12-15T20:23:19.409Z,3.89
2022-12-15T20:25:51.607Z,3.86
2022-12-15T20:28:26.597Z,3.80
2022-12-15T20:31:00.119Z,3.82
2022-12-15T20:33:32.658Z,3.84
2022-12-15T20:36:05.330Z,3.84
2022-12-15T20:38:37.511Z,3.90
2022-12-15T20:41:16.058Z,3.92
2022-12-15T20:43:48.967Z,3.91
2022-12-15T20:46:24.197Z,3.87
2022-12-15T20:48:57.727Z,3.89
2022-12-15T20:51:31.733Z,3.90
2022-12-15T20:54:14.578Z,3.93
2022-12-15T20:56:47.896Z,3.95
2022-12-15T20:59:20.310Z,3.94
2022-12-15T21:01:52.673Z,3.92
2022-12-15T21:04:29.599Z,3.93
2022-12-15T21:07:01.775Z,3.93
2022-12-15T21:09:33.939Z,3.94
2022-12-15T21:12:09.684Z,3.96
2022-12-15T21:14:41.826Z,3.99
2022-12-15T21:17:17.488Z,3.97
2022-12-15T21:19:50.421Z,3.90
2022-12-15T21:22:26.498Z,3.86
2022-12-15T21:25:00.671Z,3.87
2022-12-15T21:27:32.937Z,3.92
2022-12-15T21:30:07.307Z,3.95
2022-12-15T21:32:39.945Z,3.99
2022-12-15T21:35:17.360Z,4.02
2022-12-15T21:37:51.749Z,4.03
2022-12-15T21:40:28.832Z,4.01
2022-12-15T21:43:04.338Z,4.03
2022-12-15T21:45:36.470Z,4.03
2022-12-15T21:48:26.996Z,4.03
2022-12-15T21:50:59.140Z,4.03
2022-12-15T21:53:31.388Z,4.05
2022-12-15T21:56:03.556Z,4.07
2022-12-15T21:58:35.861Z,4.09
2022-12-15T22:01:10.289Z,4.09
2022-12-15T22:03:42.894Z,4.10
2022-12-15T22:06:20.185Z,4.11
2022-12-15T22:08:55.406Z,4.13
2022-12-15T22:11:28.862Z,4.10
2022-12-15T22:14:03.422Z,4.18
2022-12-15T22:16:35.906Z,4.20
2022-12-15T22:19:14.637Z,4.20
2022-12-15T22:21:46.798Z,4.21
2022-12-15T22:24:19.126Z,4.22
2022-12-15T22:26:51.666Z,4.20
2022-12-15T22:29:25.447Z,4.24
2022-12-15T22:31:58.260Z,4.25
2022-12-15T22:34:34.724Z,4.25
2022-12-15T22:37:06.967Z,4.20
2022-12-15T22:39:39.107Z,4.15
2022-12-15T22:42:16.247Z,4.09
2022-12-15T22:44:48.630Z,4.00
2022-12-15T22:47:20.875Z,3.92
2022-12-15T22:49:53.050Z,3.87
2022-12-15T22:52:26.879Z,3.84
2022-12-15T22:54:59.200Z,3.82
2022-12-15T22:57:31.618Z,3.79
2022-12-15T23:00:07.476Z,3.76
2022-12-15T23:02:44.399Z,3.75
2022-12-15T23:05:20.080Z,3.74
2022-12-15T23:07:52.643Z,3.72
2022-12-15T23:10:44.801Z,3.69
2022-12-15T23:13:16.939Z,3.63
2022-12-15T23:16:06.512Z,3.62
2022-12-15T23:18:39.010Z,3.61
2022-12-15T23:21:11.496Z,3.61
2022-12-15T23:23:44.054Z,3.61
2022-12-15T23:26:17.556Z,3.62
2022-12-15T23:28:49.770Z,3.61
2022-12-15T23:31:23.764Z,3.58
2022-12-15T23:33:55.996Z,3.56
2022-12-15T23:36:28.170Z,3.54
2022-12-15T23:39:01.261Z,3.55
2022-12-15T23:41:33.397Z,3.55
2022-12-15T23:44:05.914Z,3.55
2022-12-15T23:46:38.073Z,3.54
2022-12-15T23:49:10.287Z,3.52
2022-12-15T23:51:42.539Z,3.50
2022-12-15T23:54:14.740Z,3.41
2022-12-15T23:56:46.955Z,3.42
2022-12-15T23:59:19.086Z,3.39
